Time;durP1;ratioP1;P1;durP2;ratioP2;P2;SDS_P1;SDS_P2;PMS_P1;PMS_P2;Temp;Humidity;BMP_temperature;BMP_pressure;BME280_temperature;BME280_humidity;BME280_pressure;Samples;Min_cycle;Max_cycle;Signal;HPM_P1;HPM_P2
2023/06/26 00:01:22;;;;;;;9.68;6.97;;;;;;;19.43;100.00;100217.13;5566448;32;33826;-68
2023/06/26 00:04:25;;;;;;;13.98;6.80;;;;;;;19.34;100.00;100221.19;5567158;32;33863;-68
2023/06/26 00:07:29;;;;;;;10.23;7.05;;;;;;;19.44;100.00;100221.50;5567148;32;33932;-68
2023/06/26 00:10:33;;;;;;;9.70;7.50;;;;;;;19.34;100.00;100224.72;5567456;32;33906;-68
2023/06/26 00:13:35;;;;;;;14.38;6.37;;;;;;;19.43;100.00;100220.66;5567034;32;34173;-68
2023/06/26 00:16:38;;;;;;;9.65;6.70;;;;;;;19.45;100.00;100217.78;5566871;32;34693;-67
2023/06/26 00:19:40;;;;;;;8.10;6.12;;;;;;;19.49;100.00;100222.47;5566932;32;33860;-68
2023/06/26 00:22:44;;;;;;;9.13;7.25;;;;;;;19.43;100.00;100220.66;5566843;32;34174;-68
2023/06/26 00:25:47;;;;;;;8.68;6.40;;;;;;;19.36;100.00;100219.13;5566778;32;33986;-68
2023/06/26 00:28:49;;;;;;;9.88;6.90;;;;;;;19.22;100.00;100221.16;5566717;32;34795;-68
2023/06/26 00:31:52;;;;;;;11.18;6.87;;;;;;;19.17;100.00;100226.38;5566715;32;34261;-68
2023/06/26 00:34:55;;;;;;;9.85;6.70;;;;;;;19.12;100.00;100220.91;5566750;32;33814;-68
2023/06/26 00:37:57;;;;;;;9.75;6.65;;;;;;;19.17;100.00;100226.38;5566476;32;34685;-68
2023/06/26 00:41:00;;;;;;;9.63;6.50;;;;;;;19.27;100.00;100225.84;5566583;32;34655;-68
2023/06/26 00:44:04;;;;;;;9.40;6.90;;;;;;;19.28;100.00;100230.19;5566572;32;33908;-68
2023/06/26 00:47:10;;;;;;;8.43;6.43;;;;;;;19.21;100.00;100227.59;5566472;32;34200;-68
2023/06/26 00:50:15;;;;;;;8.60;6.55;;;;;;;19.02;100.00;100228.69;5566391;32;34022;-67
2023/06/26 00:53:18;;;;;;;12.82;6.68;;;;;;;18.91;100.00;100229.44;5566272;32;33078;-68
2023/06/26 00:56:22;;;;;;;9.68;6.90;;;;;;;18.91;100.00;100224.88;5566253;32;34772;-68
2023/06/26 00:59:24;;;;;;;7.95;6.60;;;;;;;18.94;100.00;100223.59;5566314;32;34796;-68
2023/06/26 01:02:33;;;;;;;8.30;7.05;;;;;;;18.82;100.00;100226.22;5566253;32;34582;-68
2023/06/26 01:05:36;;;;;;;9.45;7.78;;;;;;;18.81;100.00;100221.91;5566186;32;33977;-68
2023/06/26 01:08:41;;;;;;;8.27;7.03;;;;;;;18.80;100.00;100219.44;5566015;32;35201;-68
2023/06/26 01:11:44;;;;;;;8.98;6.78;;;;;;;18.79;100.00;100215.91;5565654;32;34241;-68
2023/06/26 01:14:46;;;;;;;9.40;7.28;;;;;;;18.76;100.00;100208.31;5566402;32;34492;-68
2023/06/26 01:17:51;;;;;;;10.10;6.87;;;;;;;18.76;100.00;100213.69;5566236;32;34106;-68
2023/06/26 01:21:00;;;;;;;13.50;7.18;;;;;;;18.76;100.00;100212.88;5565968;32;34085;-68
2023/06/26 01:24:27;;;;;;;7.97;7.05;;;;;;;18.74;100.00;100207.69;5565770;32;34152;-68
2023/06/26 01:27:32;;;;;;;11.30;6.60;;;;;;;18.61;100.00;100206.00;5565900;32;34594;-68
2023/06/26 01:30:40;;;;;;;8.32;6.57;;;;;;;18.56;100.00;100203.16;5566093;32;33802;-68
2023/06/26 01:33:43;;;;;;;10.15;7.25;;;;;;;18.64;100.00;100200.16;5564687;32;33926;-68
2023/06/26 01:36:46;;;;;;;9.02;6.50;;;;;;;18.59;100.00;100197.34;5565502;32;34873;-68
2023/06/26 01:39:48;;;;;;;11.05;6.53;;;;;;;18.64;100.00;100199.34;5565491;32;34147;-68
2023/06/26 01:42:53;;;;;;;10.68;6.93;;;;;;;18.53;100.00;100197.41;5568702;32;35330;-68
2023/06/26 01:46:01;;;;;;;9.02;6.93;;;;;;;18.43;100.00;100191.72;5568564;32;35500;-68
2023/06/26 01:49:18;;;;;;;10.63;7.43;;;;;;;18.53;100.00;100195.56;5568352;32;34960;-68
2023/06/26 01:52:42;;;;;;;10.85;7.45;;;;;;;18.44;100.00;100190.69;5568154;32;34691;-68
2023/06/26 01:55:50;;;;;;;9.20;7.35;;;;;;;18.43;100.00;100200.59;5568619;32;34211;-68
2023/06/26 01:58:54;;;;;;;12.88;6.75;;;;;;;18.36;100.00;100209.75;5567426;32;34600;-68
2023/06/26 02:01:57;;;;;;;9.23;7.37;;;;;;;18.30;100.00;100203.41;5568221;32;34278;-68
2023/06/26 02:05:02;;;;;;;11.40;6.87;;;;;;;18.21;100.00;100207.44;5568187;32;34119;-68
2023/06/26 02:08:05;;;;;;;8.75;6.90;;;;;;;18.09;100.00;100199.28;5568182;32;34064;-68
2023/06/26 02:11:08;;;;;;;9.05;6.97;;;;;;;18.10;100.00;100200.94;5568158;32;34059;-68
2023/06/26 02:14:12;;;;;;;10.95;6.85;;;;;;;18.02;100.00;100205.75;5568154;32;34064;-68
2023/06/26 02:17:15;;;;;;;11.43;7.03;;;;;;;17.97;100.00;100211.78;5568011;32;34843;-68
2023/06/26 02:20:18;;;;;;;8.82;7.07;;;;;;;17.89;100.00;100212.06;5567975;32;34261;-68
2023/06/26 02:23:20;;;;;;;10.45;7.60;;;;;;;17.89;100.00;100212.06;5567998;32;34788;-68
2023/06/26 02:26:23;;;;;;;10.57;6.85;;;;;;;17.81;100.00;100209.66;5567915;32;34051;-68
2023/06/26 02:29:25;;;;;;;11.40;7.25;;;;;;;17.80;100.00;100218.75;5568419;32;33949;-68
2023/06/26 02:32:28;;;;;;;10.02;7.32;;;;;;;17.85;100.00;100218.91;5567864;32;34119;-68
2023/06/26 02:35:32;;;;;;;10.23;7.87;;;;;;;17.83;100.00;100214.78;5568190;32;34740;-68
2023/06/26 02:38:37;;;;;;;13.23;7.53;;;;;;;17.77;100.00;100220.00;5567955;32;34873;-68
2023/06/26 02:41:39;;;;;;;11.32;7.40;;;;;;;17.73;100.00;100229.53;5567895;32;34451;-68
2023/06/26 02:44:43;;;;;;;9.70;7.28;;;;;;;17.56;100.00;100230.25;5567140;32;33856;-68
2023/06/26 02:47:46;;;;;;;9.90;7.68;;;;;;;17.52;100.00;100227.19;5567896;32;35127;-68
2023/06/26 02:50:48;;;;;;;10.13;7.03;;;;;;;17.52;100.00;100224.50;5567873;32;34603;-68
2023/06/26 02:53:51;;;;;;;9.05;7.32;;;;;;;17.46;100.00;100230.72;5566644;32;33948;-68
2023/06/26 02:56:54;;;;;;;8.05;7.03;;;;;;;17.43;100.00;100239.19;5566919;32;34152;-68
2023/06/26 02:59:57;;;;;;;9.25;7.00;;;;;;;17.37;100.00;100238.22;5567150;32;34737;-68
2023/06/26 03:03:00;;;;;;;8.43;6.97;;;;;;;17.38;100.00;100229.09;5567577;32;34190;-68
2023/06/26 03:06:03;;;;;;;10.40;7.18;;;;;;;17.51;100.00;100228.22;5567605;32;34655;-68
2023/06/26 03:09:06;;;;;;;10.00;7.40;;;;;;;17.56;100.00;100232.94;5567578;32;34580;-68
2023/06/26 03:12:09;;;;;;;10.95;7.05;;;;;;;17.60;100.00;100235.00;5567691;32;34116;-68
2023/06/26 03:15:12;;;;;;;13.48;6.85;;;;;;;17.61;100.00;100243.87;5567625;32;34770;-68
2023/06/26 03:18:14;;;;;;;8.90;6.65;;;;;;;17.59;100.00;100251.28;5567567;32;34765;-68
2023/06/26 03:21:17;;;;;;;11.12;7.35;;;;;;;17.51;100.00;100247.00;5567843;32;33971;-68
2023/06/26 03:24:21;;;;;;;9.52;7.00;;;;;;;17.39;100.00;100244.16;5567791;32;34836;-68
2023/06/26 03:27:24;;;;;;;8.98;6.70;;;;;;;17.46;100.00;100241.44;5567764;32;33874;-68
2023/06/26 03:30:26;;;;;;;8.35;7.25;;;;;;;17.37;100.00;100253.47;5567665;32;34224;-67
2023/06/26 03:33:30;;;;;;;11.30;7.15;;;;;;;17.56;100.00;100249.84;5567137;32;35048;-68
2023/06/26 03:36:32;;;;;;;14.57;7.03;;;;;;;17.56;100.00;100243.66;5567367;32;34204;-68
2023/06/26 03:39:35;;;;;;;12.73;7.93;;;;;;;17.64;100.00;100240.72;5567213;32;34161;-68
2023/06/26 03:42:38;;;;;;;10.20;8.15;;;;;;;17.60;100.00;100239.53;5567269;32;33818;-68
2023/06/26 03:45:41;;;;;;;10.73;7.35;;;;;;;17.61;100.00;100249.22;5567137;32;34775;-67
2023/06/26 03:48:44;;;;;;;9.18;7.60;;;;;;;17.73;100.00;100242.94;5567261;32;34693;-67
2023/06/26 03:51:47;;;;;;;11.32;7.50;;;;;;;17.69;100.00;100243.59;5567080;32;34111;-68
2023/06/26 03:54:49;;;;;;;10.65;7.50;;;;;;;17.80;100.00;100245.59;5567257;32;33330;-67
2023/06/26 03:57:52;;;;;;;13.07;7.47;;;;;;;17.87;100.00;100246.34;5567479;32;34617;-68
2023/06/26 04:00:55;;;;;;;9.85;7.62;;;;;;;17.83;100.00;100252.38;5567068;32;33888;-67
2023/06/26 04:04:00;;;;;;;9.18;7.45;;;;;;;17.88;100.00;100253.34;5566743;32;34743;-67
2023/06/26 04:07:03;;;;;;;9.80;7.20;;;;;;;17.84;100.00;100254.00;5566409;32;34174;-68
2023/06/26 04:10:06;;;;;;;10.95;7.62;;;;;;;17.83;100.00;100255.88;5566882;32;34166;-67
2023/06/26 04:13:09;;;;;;;11.95;7.18;;;;;;;17.98;100.00;100260.91;5566685;32;34960;-68
2023/06/26 04:16:12;;;;;;;10.82;7.30;;;;;;;17.94;100.00;100257.03;5566859;32;33745;-67
2023/06/26 04:19:14;;;;;;;15.85;7.80;;;;;;;18.10;100.00;100256.50;5566874;32;34224;-68
2023/06/26 04:22:17;;;;;;;29.65;8.50;;;;;;;18.11;100.00;100266.16;5571436;31;34777;-68
2023/06/26 04:25:20;;;;;;;11.00;7.53;;;;;;;18.13;100.00;100256.88;5585217;31;34435;-67
2023/06/26 04:28:23;;;;;;;9.55;7.37;;;;;;;18.10;100.00;100260.00;5585729;31;34779;-68
2023/06/26 04:31:26;;;;;;;10.70;7.25;;;;;;;18.10;100.00;100269.91;5585497;31;34887;-68
2023/06/26 04:34:32;;;;;;;9.50;7.78;;;;;;;18.08;100.00;100261.25;5585965;31;33882;-68
2023/06/26 04:37:36;;;;;;;10.05;7.25;;;;;;;18.15;100.00;100259.34;5583351;31;34328;-68
2023/06/26 04:40:39;;;;;;;13.02;7.43;;;;;;;18.34;100.00;100266.41;5585599;31;34053;-68
2023/06/26 04:43:42;;;;;;;12.02;7.95;;;;;;;18.23;100.00;100265.25;5583132;31;34125;-69
2023/06/26 04:46:45;;;;;;;10.52;7.62;;;;;;;18.36;100.00;100272.34;5585411;31;35037;-68
2023/06/26 04:49:47;;;;;;;22.70;7.72;;;;;;;18.50;100.00;100265.81;5582513;31;33945;-68
2023/06/26 04:52:50;;;;;;;11.85;7.68;;;;;;;18.62;100.00;100266.75;5585008;31;34021;-67
2023/06/26 04:55:53;;;;;;;18.48;7.65;;;;;;;18.70;100.00;100267.50;5583847;31;34262;-67
2023/06/26 04:58:56;;;;;;;9.40;7.40;;;;;;;18.71;100.00;100264.59;5582787;31;33508;-68
2023/06/26 05:01:58;;;;;;;15.25;7.10;;;;;;;18.58;100.00;100268.25;5578545;31;34064;-68
2023/06/26 05:05:01;;;;;;;10.43;7.15;;;;;;;18.64;100.00;100266.53;5584834;31;33737;-68
2023/06/26 05:08:25;;;;;;;11.10;7.18;;;;;;;18.72;100.00;100268.13;5584659;31;34042;-68
2023/06/26 05:11:28;;;;;;;9.82;7.05;;;;;;;19.06;100.00;100265.62;5585420;31;34141;-69
2023/06/26 05:14:31;;;;;;;8.60;6.85;;;;;;;19.07;100.00;100271.84;5585617;31;34628;-68
2023/06/26 05:17:33;;;;;;;9.95;7.10;;;;;;;19.23;100.00;100273.06;5587736;31;33944;-68
2023/06/26 05:20:37;;;;;;;11.88;7.72;;;;;;;19.41;100.00;100273.84;5586090;31;34301;-68
2023/06/26 05:23:41;;;;;;;11.55;7.25;;;;;;;19.51;100.00;100266.09;5587820;31;34968;-68
2023/06/26 05:26:44;;;;;;;8.40;6.95;;;;;;;19.66;100.00;100267.53;5587439;31;34879;-67
2023/06/26 05:29:48;;;;;;;10.57;7.40;;;;;;;19.85;100.00;100267.25;5585695;31;34038;-68
2023/06/26 05:32:52;;;;;;;11.65;8.05;;;;;;;19.98;100.00;100268.09;5587605;31;33962;-69
2023/06/26 05:35:55;;;;;;;12.90;7.55;;;;;;;20.07;100.00;100258.63;5585836;31;34941;-68
2023/06/26 05:38:58;;;;;;;9.77;6.82;;;;;;;20.21;100.00;100266.25;5583006;31;33935;-68
2023/06/26 05:42:02;;;;;;;17.35;7.87;;;;;;;20.28;100.00;100263.44;5576325;31;34072;-68
2023/06/26 05:45:05;;;;;;;11.75;7.32;;;;;;;20.35;100.00;100264.16;5587399;31;33810;-68
2023/06/26 05:48:08;;;;;;;9.60;7.05;;;;;;;20.59;100.00;100268.50;5581340;31;34155;-69
2023/06/26 05:51:11;;;;;;;12.40;7.10;;;;;;;20.79;100.00;100266.25;5573722;31;34146;-70
2023/06/26 05:54:16;;;;;;;10.45;6.80;;;;;;;20.79;100.00;100268.13;5586883;31;34232;-68
2023/06/26 05:57:19;;;;;;;11.05;7.18;;;;;;;20.89;100.00;100271.03;5578224;31;34062;-68
2023/06/26 06:00:22;;;;;;;11.88;7.12;;;;;;;21.04;100.00;100267.84;5586959;31;34864;-69
2023/06/26 06:03:25;;;;;;;11.52;6.70;;;;;;;21.19;100.00;100269.00;5570340;31;35026;-69
2023/06/26 06:06:28;;;;;;;14.23;6.55;;;;;;;21.35;100.00;100269.31;5567544;32;34301;-69
2023/06/26 06:09:31;;;;;;;10.30;7.28;;;;;;;21.24;100.00;100270.97;5567513;32;34580;-69
2023/06/26 06:12:34;;;;;;;11.70;7.68;;;;;;;21.25;100.00;100268.03;5567352;32;34258;-69
2023/06/26 06:15:36;;;;;;;13.57;7.40;;;;;;;21.48;100.00;100269.81;5570359;31;34350;-69
2023/06/26 06:18:39;;;;;;;11.82;7.12;;;;;;;21.53;100.00;100261.81;5578186;31;33858;-69
2023/06/26 06:21:43;;;;;;;14.43;7.62;;;;;;;21.63;100.00;100267.41;5580397;31;34067;-68
2023/06/26 06:24:46;;;;;;;15.35;6.75;;;;;;;21.88;100.00;100260.81;5578797;31;34790;-68
2023/06/26 06:27:50;;;;;;;8.32;6.18;;;;;;;22.02;100.00;100260.28;5577671;31;34130;-69
2023/06/26 06:30:52;;;;;;;9.93;6.95;;;;;;;22.15;100.00;100261.81;5574898;31;34514;-69
2023/06/26 06:33:55;;;;;;;9.02;6.25;;;;;;;22.16;100.00;100263.47;5577209;31;34481;-70
2023/06/26 06:36:58;;;;;;;9.85;5.72;;;;;;;22.13;100.00;100266.63;5569540;31;33868;-69
2023/06/26 06:40:01;;;;;;;10.85;6.28;;;;;;;22.35;99.52;100266.72;5568746;31;34042;-69
2023/06/26 06:43:03;;;;;;;8.65;6.43;;;;;;;22.59;99.04;100265.47;5580641;31;34803;-68
2023/06/26 06:46:06;;;;;;;10.55;6.25;;;;;;;22.64;91.93;100272.81;5576017;31;34630;-68
2023/06/26 06:49:09;;;;;;;9.45;6.20;;;;;;;22.81;92.94;100276.31;5576936;31;34311;-69
2023/06/26 06:52:12;;;;;;;11.25;6.60;;;;;;;22.82;95.92;100264.44;5585945;31;33783;-69
2023/06/26 06:55:14;;;;;;;15.60;6.05;;;;;;;22.99;93.02;100272.50;5579082;31;33864;-69
2023/06/26 06:58:19;;;;;;;11.70;6.05;;;;;;;23.13;89.92;100268.34;5581386;31;34114;-70
2023/06/26 07:01:21;;;;;;;11.50;6.28;;;;;;;23.22;87.41;100267.66;5572438;31;34268;-69
2023/06/26 07:04:24;;;;;;;11.73;5.50;;;;;;;23.46;87.32;100273.63;5567077;32;34042;-68
2023/06/26 07:07:29;;;;;;;10.50;5.90;;;;;;;23.56;86.81;100272.91;5567195;32;33792;-69
2023/06/26 07:10:32;;;;;;;6.70;5.60;;;;;;;23.85;85.27;100271.56;5577642;31;33934;-68
2023/06/26 07:13:35;;;;;;;7.43;5.43;;;;;;;24.12;81.45;100269.62;5581860;31;34823;-68
2023/06/26 07:16:37;;;;;;;10.43;5.80;;;;;;;24.48;76.83;100262.59;5571739;31;34215;-68
2023/06/26 07:19:40;;;;;;;10.23;5.50;;;;;;;24.40;72.83;100260.34;5567233;32;34064;-69
2023/06/26 07:22:47;;;;;;;8.23;5.47;;;;;;;24.47;73.90;100262.84;5567381;32;34791;-69
2023/06/26 07:25:49;;;;;;;8.20;5.62;;;;;;;24.85;75.94;100262.53;5567201;32;34546;-69
2023/06/26 07:28:52;;;;;;;9.63;5.75;;;;;;;25.00;68.17;100264.50;5571067;31;34265;-69
2023/06/26 07:31:55;;;;;;;9.38;5.75;;;;;;;25.30;68.37;100255.66;5574825;31;33907;-69
2023/06/26 07:34:57;;;;;;;11.32;6.12;;;;;;;25.72;66.84;100269.91;5580210;31;33970;-69
2023/06/26 07:38:00;;;;;;;18.15;5.95;;;;;;;25.73;64.63;100268.00;5568668;31;34073;-69
2023/06/26 07:41:03;;;;;;;8.38;5.70;;;;;;;26.09;61.37;100266.12;5568698;31;35547;-69
2023/06/26 07:44:06;;;;;;;10.93;6.12;;;;;;;26.44;62.73;100266.09;5568998;31;34240;-69
2023/06/26 07:47:09;;;;;;;7.12;4.78;;;;;;;27.22;59.41;100264.50;5568997;31;33986;-70
2023/06/26 07:50:15;;;;;;;13.27;5.22;;;;;;;27.87;56.90;100264.41;5575752;31;33681;-68
2023/06/26 07:53:18;;;;;;;11.00;5.47;;;;;;;29.14;54.05;100261.22;5573808;31;34117;-69
2023/06/26 07:56:21;;;;;;;8.15;5.22;;;;;;;29.57;50.42;100268.28;5582701;31;34337;-69
2023/06/26 07:59:25;;;;;;;10.75;4.90;;;;;;;30.23;48.61;100272.72;5580653;31;34008;-70
2023/06/26 08:02:27;;;;;;;9.05;5.30;;;;;;;30.49;47.12;100273.91;5572443;31;34917;-70
2023/06/26 08:05:30;;;;;;;7.85;5.55;;;;;;;29.10;49.50;100263.69;5577448;31;33495;-70
2023/06/26 08:08:33;;;;;;;10.07;5.12;;;;;;;30.35;46.23;100266.78;5572737;31;34797;-71
2023/06/26 08:11:36;;;;;;;16.05;5.47;;;;;;;30.65;46.12;100264.28;5572189;31;34734;-70
2023/06/26 08:14:39;;;;;;;12.63;5.18;;;;;;;30.70;45.08;100270.78;5566138;32;34872;-71
2023/06/26 08:17:42;;;;;;;10.52;5.40;;;;;;;31.51;43.13;100261.69;5566449;32;34143;-72
2023/06/26 08:20:44;;;;;;;6.47;4.43;;;;;;;32.10;43.71;100271.53;5568501;31;34169;-72
2023/06/26 08:23:47;;;;;;;8.50;4.87;;;;;;;33.31;39.41;100269.34;5574649;31;34108;-72
2023/06/26 08:26:50;;;;;;;6.22;4.50;;;;;;;33.43;38.80;100267.56;5584891;31;34055;-71
2023/06/26 08:29:53;;;;;;;8.30;4.75;;;;;;;32.40;39.31;100271.88;5585283;31;34118;-72
2023/06/26 08:32:56;;;;;;;9.73;4.68;;;;;;;30.32;41.46;100268.16;5568121;31;34112;-71
2023/06/26 08:35:59;;;;;;;11.18;4.82;;;;;;;28.70;44.59;100265.00;5573700;31;34055;-70
2023/06/26 08:39:02;;;;;;;7.60;4.87;;;;;;;28.91;46.83;100263.66;5585288;31;34106;-70
2023/06/26 08:42:06;;;;;;;8.52;5.07;;;;;;;29.75;44.15;100258.44;5583957;31;35471;-71
2023/06/26 08:45:08;;;;;;;17.98;5.85;;;;;;;29.87;43.27;100264.25;5581369;31;34626;-70
2023/06/26 08:48:12;;;;;;;10.55;5.47;;;;;;;28.81;46.70;100263.78;5580449;31;34113;-71
2023/06/26 08:51:18;;;;;;;7.78;5.20;;;;;;;27.42;48.28;100260.03;5572881;31;34164;-71
2023/06/26 08:54:28;;;;;;;15.13;5.35;;;;;;;27.15;51.34;100258.56;5587509;31;34947;-70
2023/06/26 08:57:32;;;;;;;10.25;4.80;;;;;;;26.96;50.82;100264.91;5572706;31;35040;-71
2023/06/26 09:00:35;;;;;;;6.93;4.82;;;;;;;27.16;49.20;100264.78;5567719;32;34454;-71
2023/06/26 09:03:37;;;;;;;7.78;5.18;;;;;;;27.41;50.05;100263.84;5568325;32;34930;-71
2023/06/26 09:06:41;;;;;;;8.93;5.45;;;;;;;29.11;46.88;100264.53;5566747;32;34146;-71
2023/06/26 09:09:44;;;;;;;9.73;5.10;;;;;;;31.11;42.68;100262.59;5584377;31;34213;-73
2023/06/26 09:12:50;;;;;;;8.90;5.15;;;;;;;30.79;43.32;100266.25;5583391;31;34172;-72
2023/06/26 09:15:55;;;;;;;8.77;4.53;;;;;;;33.36;37.57;100258.16;5573143;31;34932;-73
2023/06/26 09:18:58;;;;;;;11.70;4.95;;;;;;;33.81;35.77;100264.19;5579201;31;34100;-72
2023/06/26 09:22:01;;;;;;;8.40;5.18;;;;;;;32.17;37.00;100252.69;5568189;31;34198;-72
2023/06/26 09:25:05;;;;;;;11.57;5.32;;;;;;;30.42;42.20;100251.56;5575787;31;34191;-72
2023/06/26 09:28:08;;;;;;;8.25;4.90;;;;;;;30.36;41.13;100251.94;5567090;32;34289;-71
2023/06/26 09:31:12;;;;;;;6.57;4.72;;;;;;;31.66;39.76;100250.37;5567785;32;34322;-72
2023/06/26 09:34:20;;;;;;;8.02;4.62;;;;;;;31.88;38.93;100252.31;5567544;32;34816;-72
2023/06/26 09:37:24;;;;;;;6.72;4.60;;;;;;;33.01;37.45;100249.84;5567959;32;34037;-73
2023/06/26 09:40:27;;;;;;;6.45;4.57;;;;;;;33.08;36.85;100252.09;5570656;31;34152;-72
2023/06/26 09:43:31;;;;;;;9.82;4.45;;;;;;;33.47;35.16;100249.28;5569482;31;34738;-72
2023/06/26 09:46:34;;;;;;;8.15;4.00;;;;;;;35.04;35.40;100251.34;5575346;31;34238;-71
2023/06/26 09:49:44;;;;;;;7.45;4.50;;;;;;;36.86;30.77;100244.56;5577967;31;33988;-71
2023/06/26 09:52:46;;;;;;;5.68;4.07;;;;;;;36.87;29.35;100250.91;5588373;31;34321;-71
2023/06/26 09:55:49;;;;;;;8.43;4.32;;;;;;;35.74;30.48;100242.25;5575837;31;34738;-69
2023/06/26 09:58:53;;;;;;;5.65;3.90;;;;;;;36.11;30.84;100243.19;5567959;32;34631;-70
2023/06/26 10:01:59;;;;;;;5.30;3.62;;;;;;;35.10;31.93;100242.53;5567464;32;34209;-71
2023/06/26 10:05:03;;;;;;;5.18;3.75;;;;;;;34.92;32.66;100238.25;5567190;32;34292;-73
2023/06/26 10:08:06;;;;;;;7.93;4.07;;;;;;;35.61;30.35;100229.50;5579556;31;34044;-71
2023/06/26 10:11:13;;;;;;;5.12;3.97;;;;;;;36.60;31.60;100235.78;5577907;31;34036;-73
2023/06/26 10:14:17;;;;;;;5.90;3.90;;;;;;;35.34;31.79;100241.09;5584313;31;34216;-70
2023/06/26 10:17:21;;;;;;;4.82;3.67;;;;;;;35.46;32.67;100238.41;5567561;31;34139;-70
2023/06/26 10:20:26;;;;;;;4.80;3.97;;;;;;;35.64;31.64;100232.38;5567710;32;34067;-71
2023/06/26 10:23:30;;;;;;;5.30;3.67;;;;;;;36.70;29.67;100223.50;5566994;32;34173;-71
2023/06/26 10:26:38;;;;;;;6.45;3.60;;;;;;;36.61;29.38;100226.38;5567565;31;34019;-71
2023/06/26 10:29:44;;;;;;;6.22;4.07;;;;;;;35.07;32.13;100212.06;5569309;31;33928;-73
2023/06/26 10:32:48;;;;;;;4.57;3.50;;;;;;;36.57;30.89;100208.84;5577775;31;34222;-73
2023/06/26 10:35:51;;;;;;;7.10;4.10;;;;;;;35.37;30.42;100210.88;5567542;32;34354;-74
2023/06/26 10:39:04;;;;;;;5.60;4.15;;;;;;;35.33;31.25;100209.16;5567133;32;34119;-70
2023/06/26 10:42:10;;;;;;;5.32;3.75;;;;;;;35.49;31.01;100210.13;5567352;32;33812;-72
2023/06/26 10:45:27;;;;;;;5.82;3.70;;;;;;;36.58;29.72;100210.44;5566312;32;35168;-74
2023/06/26 10:48:30;;;;;;;4.78;3.80;;;;;;;36.43;29.26;100206.41;5567028;32;34023;-73
2023/06/26 10:51:33;;;;;;;5.05;3.70;;;;;;;37.18;28.68;100217.13;5567513;32;34151;-71
2023/06/26 10:54:37;;;;;;;5.15;4.00;;;;;;;37.28;28.62;100203.59;5567408;32;35370;-72
2023/06/26 10:57:46;;;;;;;4.28;3.72;;;;;;;36.40;29.33;100209.06;5566899;32;34185;-72
2023/06/26 11:00:50;;;;;;;5.85;3.55;;;;;;;35.44;30.42;100210.37;5554620;32;34828;-72
2023/06/26 11:03:59;;;;;;;9.90;3.75;;;;;;;35.80;30.18;100202.25;5553635;32;34506;-74
2023/06/26 11:07:24;;;;;;;6.32;3.47;;;;;;;37.66;27.46;100207.88;5567144;32;33925;-74
2023/06/26 11:10:27;;;;;;;4.93;3.67;;;;;;;37.36;25.94;100212.91;5560643;32;33811;-73
2023/06/26 11:13:35;;;;;;;4.80;3.87;;;;;;;38.52;26.89;100211.75;5552811;32;33863;-73
2023/06/26 11:16:38;;;;;;;4.90;3.60;;;;;;;39.74;25.36;100214.91;5567097;32;34065;-72
2023/06/26 11:19:43;;;;;;;5.45;3.97;;;;;;;39.94;25.49;100207.38;5567405;32;33898;-73
2023/06/26 11:22:51;;;;;;;5.40;3.80;;;;;;;38.21;28.14;100204.22;5567138;32;34191;-70
2023/06/26 11:25:54;;;;;;;8.43;3.80;;;;;;;37.36;28.49;100199.09;5566864;32;34660;-71
2023/06/26 11:28:57;;;;;;;5.53;3.55;;;;;;;37.92;27.37;100197.09;5566815;32;34804;-74
2023/06/26 11:32:02;;;;;;;6.00;3.70;;;;;;;36.89;27.92;100185.00;5566747;32;33273;-73
2023/06/26 11:35:09;;;;;;;6.43;3.70;;;;;;;37.42;27.19;100184.62;5545484;32;34079;-74
2023/06/26 11:38:12;;;;;;;5.37;3.72;;;;;;;38.41;25.25;100191.25;5558584;32;34640;-74
2023/06/26 11:41:17;;;;;;;5.62;3.62;;;;;;;38.93;25.83;100190.94;5567163;32;34134;-70
2023/06/26 11:44:21;;;;;;;5.28;3.28;;;;;;;39.48;24.52;100195.34;5553047;32;34077;-74
2023/06/26 11:47:24;;;;;;;5.80;3.53;;;;;;;38.75;23.87;100182.22;5541562;32;34120;-73
2023/06/26 11:50:28;;;;;;;5.72;3.65;;;;;;;38.76;25.41;100185.78;5549114;32;33873;-74
2023/06/26 11:53:30;;;;;;;9.13;3.53;;;;;;;37.97;26.63;100180.22;5578537;31;34276;-72
2023/06/26 11:56:34;;;;;;;6.12;3.37;;;;;;;40.46;24.42;100180.88;5579387;31;34159;-71
2023/06/26 11:59:39;;;;;;;3.62;3.30;;;;;;;38.08;25.68;100175.81;5583468;31;34072;-71
2023/06/26 12:02:46;;;;;;;6.90;3.20;;;;;;;39.21;24.23;100185.22;5582515;31;35211;-73
2023/06/26 12:05:52;;;;;;;4.07;3.50;;;;;;;40.66;23.83;100169.31;5580941;31;34237;-74
2023/06/26 12:08:55;;;;;;;5.12;3.30;;;;;;;40.44;23.53;100174.88;5564783;31;34148;-73
2023/06/26 12:11:59;;;;;;;6.10;3.10;;;;;;;40.48;24.02;100173.75;5582320;31;34154;-71
2023/06/26 12:15:03;;;;;;;4.62;3.47;;;;;;;40.75;23.94;100178.19;5586438;31;34726;-73
2023/06/26 12:18:09;;;;;;;5.25;3.30;;;;;;;40.58;22.91;100172.31;5585586;31;34060;-73
2023/06/26 12:21:29;;;;;;;5.55;3.65;;;;;;;41.07;22.15;100173.06;5585371;31;34135;-73
2023/06/26 12:24:32;;;;;;;4.25;3.35;;;;;;;39.94;23.10;100171.25;5584927;31;34943;-72
2023/06/26 12:27:35;;;;;;;4.80;3.60;;;;;;;39.88;23.45;100162.41;5572199;31;35409;-72
2023/06/26 12:30:38;;;;;;;5.43;3.37;;;;;;;38.98;23.61;100163.72;5566770;32;33868;-71
2023/06/26 12:33:45;;;;;;;5.80;3.58;;;;;;;41.25;23.14;100158.59;5566406;32;34515;-72
2023/06/26 12:36:49;;;;;;;6.57;3.40;;;;;;;39.83;24.36;100161.91;5565640;32;33825;-74
2023/06/26 12:39:54;;;;;;;7.40;3.67;;;;;;;40.26;23.51;100160.69;5566599;32;34105;-71
2023/06/26 12:42:57;;;;;;;7.00;3.60;;;;;;;40.70;23.73;100156.25;5565841;32;33930;-74
2023/06/26 12:45:59;;;;;;;5.75;3.47;;;;;;;38.50;25.24;100164.19;5566242;32;34226;-73
2023/06/26 12:49:03;;;;;;;5.78;3.40;;;;;;;40.39;24.19;100160.13;5566567;32;34168;-72
2023/06/26 12:52:15;;;;;;;4.68;3.65;;;;;;;43.09;21.94;100161.03;5566054;32;35443;-74
2023/06/26 12:55:18;;;;;;;5.75;3.40;;;;;;;40.07;23.35;100155.19;5569390;31;33878;-70
2023/06/26 12:58:21;;;;;;;3.85;3.45;;;;;;;38.49;25.79;100151.50;5585890;31;34121;-73
2023/06/26 13:01:24;;;;;;;5.00;3.42;;;;;;;39.10;24.87;100151.72;5585335;31;34817;-73
2023/06/26 13:04:27;;;;;;;4.75;3.60;;;;;;;40.32;24.01;100140.56;5585446;31;34827;-71
2023/06/26 13:07:30;;;;;;;5.85;3.53;;;;;;;39.64;24.68;100151.63;5584692;31;33961;-72
2023/06/26 13:10:33;;;;;;;4.10;3.22;;;;;;;41.09;22.63;100147.66;5585353;31;34278;-71
2023/06/26 13:13:36;;;;;;;5.72;3.97;;;;;;;41.49;22.32;100152.53;5584901;31;34160;-72
2023/06/26 13:16:39;;;;;;;6.35;3.70;;;;;;;40.03;23.88;100151.56;5585371;31;34087;-70
2023/06/26 13:19:43;;;;;;;7.32;3.95;;;;;;;39.84;24.22;100144.91;5584666;31;34096;-72
2023/06/26 13:22:46;;;;;;;5.57;3.72;;;;;;;40.12;23.49;100139.00;5584454;31;35411;-73
2023/06/26 13:25:50;;;;;;;6.28;3.30;;;;;;;40.44;23.48;100141.50;5583548;31;32723;-71
2023/06/26 13:28:52;;;;;;;7.50;4.00;;;;;;;41.79;22.71;100132.91;5584375;31;33950;-71
2023/06/26 13:31:56;;;;;;;5.05;3.60;;;;;;;41.22;22.57;100132.31;5576207;31;33869;-72
2023/06/26 13:34:59;;;;;;;7.35;3.70;;;;;;;41.72;22.06;100128.09;5565186;31;34020;-73
2023/06/26 13:38:02;;;;;;;13.00;3.90;;;;;;;43.71;20.20;100136.50;5568688;31;34326;-71
2023/06/26 13:41:04;;;;;;;4.10;3.30;;;;;;;43.96;19.50;100133.75;5580204;31;34836;-73
2023/06/26 13:44:07;;;;;;;4.45;3.45;;;;;;;42.75;20.70;100129.72;5573548;31;34213;-70
2023/06/26 13:47:30;;;;;;;5.55;3.53;;;;;;;44.38;18.82;100130.16;5580143;31;33630;-71
2023/06/26 13:50:33;;;;;;;7.12;3.20;;;;;;;41.57;21.32;100124.38;5587349;31;34241;-73
2023/06/26 13:53:59;;;;;;;5.12;3.50;;;;;;;43.00;20.39;100127.06;5586933;31;34796;-69
2023/06/26 13:57:05;;;;;;;4.68;3.45;;;;;;;41.19;22.74;100125.53;5586715;31;34088;-71
2023/06/26 14:00:09;;;;;;;6.07;3.78;;;;;;;41.81;22.25;100122.22;5586945;31;34046;-71
2023/06/26 14:03:13;;;;;;;16.33;4.25;;;;;;;42.24;21.21;100109.44;5586999;31;34091;-70
2023/06/26 14:06:16;;;;;;;6.45;3.80;;;;;;;41.93;22.20;100111.59;5579098;31;34876;-69
2023/06/26 14:09:19;;;;;;;6.03;3.87;;;;;;;40.30;23.01;100109.53;5582996;31;33753;-70